sensor_id;sensor_type;location;lat;lon;timestamp;P1;durP1;ratioP1;P2;durP2;ratioP2
41709;SDS011;59402;48.396;-4.472;2023-05-29T00:00:14;19.33;;;7.57;;
41709;SDS011;59402;48.396;-4.472;2023-05-29T00:02:45;28.42;;;8.32;;
41709;SDS011;59402;48.396;-4.472;2023-05-29T00:05:11;22.08;;;7.63;;
41709;SDS011;59402;48.396;-4.472;2023-05-29T00:07:38;23.40;;;7.85;;
41709;SDS011;59402;48.396;-4.472;2023-05-29T00:10:05;21.27;;;8.20;;
41709;SDS011;59402;48.396;-4.472;2023-05-29T00:12:31;26.80;;;8.85;;
41709;SDS011;59402;48.396;-4.472;2023-05-29T00:14:57;22.25;;;8.15;;
41709;SDS011;59402;48.396;-4.472;2023-05-29T00:17:23;25.35;;;8.38;;
41709;SDS011;59402;48.396;-4.472;2023-05-29T00:19:49;25.35;;;8.48;;
41709;SDS011;59402;48.396;-4.472;2023-05-29T00:22:15;24.13;;;9.13;;
41709;SDS011;59402;48.396;-4.472;2023-05-29T00:24:41;22.52;;;8.85;;
41709;SDS011;59402;48.396;-4.472;2023-05-29T00:27:07;21.48;;;8.32;;
41709;SDS011;59402;48.396;-4.472;2023-05-29T00:29:34;23.88;;;8.35;;
41709;SDS011;59402;48.396;-4.472;2023-05-29T00:32:01;20.55;;;9.00;;
41709;SDS011;59402;48.396;-4.472;2023-05-29T00:34:27;20.88;;;8.27;;
41709;SDS011;59402;48.396;-4.472;2023-05-29T00:36:53;22.83;;;8.02;;
41709;SDS011;59402;48.396;-4.472;2023-05-29T00:39:21;24.27;;;8.27;;
41709;SDS011;59402;48.396;-4.472;2023-05-29T00:41:47;21.73;;;8.57;;
41709;SDS011;59402;48.396;-4.472;2023-05-29T00:44:22;24.85;;;8.52;;
41709;SDS011;59402;48.396;-4.472;2023-05-29T00:46:49;24.60;;;7.68;;
41709;SDS011;59402;48.396;-4.472;2023-05-29T00:49:18;17.65;;;6.72;;
41709;SDS011;59402;48.396;-4.472;2023-05-29T00:51:45;28.52;;;7.85;;
41709;SDS011;59402;48.396;-4.472;2023-05-29T00:54:12;20.95;;;7.30;;
41709;SDS011;59402;48.396;-4.472;2023-05-29T00:56:40;21.58;;;7.15;;
41709;SDS011;59402;48.396;-4.472;2023-05-29T00:59:09;20.75;;;7.57;;
41709;SDS011;59402;48.396;-4.472;2023-05-29T01:01:35;16.35;;;6.88;;
41709;SDS011;59402;48.396;-4.472;2023-05-29T01:04:01;15.18;;;6.63;;
41709;SDS011;59402;48.396;-4.472;2023-05-29T01:08:55;15.98;;;6.75;;
41709;SDS011;59402;48.396;-4.472;2023-05-29T01:13:55;18.42;;;6.78;;
41709;SDS011;59402;48.396;-4.472;2023-05-29T01:16:31;19.70;;;6.93;;
41709;SDS011;59402;48.396;-4.472;2023-05-29T01:24:49;18.75;;;6.90;;
41709;SDS011;59402;48.396;-4.472;2023-05-29T01:27:17;17.40;;;6.80;;
41709;SDS011;59402;48.396;-4.472;2023-05-29T01:29:43;16.77;;;7.07;;
41709;SDS011;59402;48.396;-4.472;2023-05-29T01:32:10;18.92;;;6.75;;
41709;SDS011;59402;48.396;-4.472;2023-05-29T01:34:36;19.00;;;7.25;;
41709;SDS011;59402;48.396;-4.472;2023-05-29T01:37:02;23.55;;;7.25;;
41709;SDS011;59402;48.396;-4.472;2023-05-29T01:39:28;21.48;;;7.10;;
41709;SDS011;59402;48.396;-4.472;2023-05-29T01:41:55;17.02;;;6.75;;
41709;SDS011;59402;48.396;-4.472;2023-05-29T01:44:21;16.75;;;6.43;;
41709;SDS011;59402;48.396;-4.472;2023-05-29T01:46:48;15.68;;;7.03;;
41709;SDS011;59402;48.396;-4.472;2023-05-29T01:49:15;18.30;;;6.78;;
41709;SDS011;59402;48.396;-4.472;2023-05-29T01:51:41;23.40;;;7.38;;
41709;SDS011;59402;48.396;-4.472;2023-05-29T01:54:06;18.90;;;7.20;;
41709;SDS011;59402;48.396;-4.472;2023-05-29T01:56:33;19.00;;;7.13;;
41709;SDS011;59402;48.396;-4.472;2023-05-29T01:58:59;22.70;;;7.32;;
41709;SDS011;59402;48.396;-4.472;2023-05-29T02:01:27;22.30;;;7.32;;
41709;SDS011;59402;48.396;-4.472;2023-05-29T02:03:53;19.42;;;7.45;;
41709;SDS011;59402;48.396;-4.472;2023-05-29T02:06:19;17.25;;;7.10;;
41709;SDS011;59402;48.396;-4.472;2023-05-29T02:08:45;18.48;;;7.40;;
41709;SDS011;59402;48.396;-4.472;2023-05-29T02:11:11;20.83;;;7.18;;
41709;SDS011;59402;48.396;-4.472;2023-05-29T02:13:37;21.05;;;7.10;;
41709;SDS011;59402;48.396;-4.472;2023-05-29T02:16:03;18.73;;;6.60;;
41709;SDS011;59402;48.396;-4.472;2023-05-29T02:18:29;19.63;;;7.25;;
41709;SDS011;59402;48.396;-4.472;2023-05-29T02:20:54;22.25;;;7.25;;
41709;SDS011;59402;48.396;-4.472;2023-05-29T02:23:21;20.92;;;6.97;;
41709;SDS011;59402;48.396;-4.472;2023-05-29T02:25:47;18.17;;;6.82;;
41709;SDS011;59402;48.396;-4.472;2023-05-29T02:28:12;19.35;;;7.18;;
41709;SDS011;59402;48.396;-4.472;2023-05-29T02:30:38;19.05;;;7.28;;
41709;SDS011;59402;48.396;-4.472;2023-05-29T02:33:04;21.40;;;7.07;;
41709;SDS011;59402;48.396;-4.472;2023-05-29T02:35:33;24.85;;;7.68;;
41709;SDS011;59402;48.396;-4.472;2023-05-29T02:37:59;18.80;;;6.95;;
41709;SDS011;59402;48.396;-4.472;2023-05-29T02:40:25;24.88;;;7.60;;
41709;SDS011;59402;48.396;-4.472;2023-05-29T02:42:50;23.23;;;7.60;;
41709;SDS011;59402;48.396;-4.472;2023-05-29T02:45:16;19.25;;;7.00;;
41709;SDS011;59402;48.396;-4.472;2023-05-29T02:47:42;16.33;;;6.45;;
41709;SDS011;59402;48.396;-4.472;2023-05-29T02:50:08;24.35;;;7.00;;
41709;SDS011;59402;48.396;-4.472;2023-05-29T02:52:34;21.02;;;7.28;;
41709;SDS011;59402;48.396;-4.472;2023-05-29T02:55:02;19.25;;;6.97;;
41709;SDS011;59402;48.396;-4.472;2023-05-29T02:57:29;22.50;;;7.35;;
41709;SDS011;59402;48.396;-4.472;2023-05-29T02:59:55;22.58;;;7.38;;
41709;SDS011;59402;48.396;-4.472;2023-05-29T03:02:21;18.35;;;7.32;;
41709;SDS011;59402;48.396;-4.472;2023-05-29T03:04:46;19.02;;;7.03;;
41709;SDS011;59402;48.396;-4.472;2023-05-29T03:07:15;21.20;;;7.47;;
41709;SDS011;59402;48.396;-4.472;2023-05-29T03:09:41;22.42;;;7.72;;
41709;SDS011;59402;48.396;-4.472;2023-05-29T03:12:08;26.08;;;8.32;;
41709;SDS011;59402;48.396;-4.472;2023-05-29T03:14:34;28.08;;;7.63;;
41709;SDS011;59402;48.396;-4.472;2023-05-29T03:17:04;23.92;;;7.63;;
41709;SDS011;59402;48.396;-4.472;2023-05-29T03:19:31;29.15;;;7.78;;
41709;SDS011;59402;48.396;-4.472;2023-05-29T03:21:56;28.30;;;7.55;;
41709;SDS011;59402;48.396;-4.472;2023-05-29T03:24:22;27.75;;;8.50;;
41709;SDS011;59402;48.396;-4.472;2023-05-29T03:26:52;30.60;;;8.77;;
41709;SDS011;59402;48.396;-4.472;2023-05-29T03:29:18;23.95;;;8.10;;
41709;SDS011;59402;48.396;-4.472;2023-05-29T03:31:44;24.58;;;7.43;;
41709;SDS011;59402;48.396;-4.472;2023-05-29T03:34:13;29.15;;;8.68;;
41709;SDS011;59402;48.396;-4.472;2023-05-29T03:36:46;27.27;;;7.78;;
41709;SDS011;59402;48.396;-4.472;2023-05-29T03:39:12;23.92;;;7.32;;
41709;SDS011;59402;48.396;-4.472;2023-05-29T03:41:39;30.33;;;8.75;;
41709;SDS011;59402;48.396;-4.472;2023-05-29T03:44:05;29.70;;;7.97;;
41709;SDS011;59402;48.396;-4.472;2023-05-29T03:46:31;29.73;;;8.07;;
41709;SDS011;59402;48.396;-4.472;2023-05-29T03:48:57;30.60;;;8.82;;
41709;SDS011;59402;48.396;-4.472;2023-05-29T03:51:23;29.55;;;8.38;;
41709;SDS011;59402;48.396;-4.472;2023-05-29T03:53:52;29.92;;;9.25;;
41709;SDS011;59402;48.396;-4.472;2023-05-29T03:56:17;26.45;;;8.82;;
41709;SDS011;59402;48.396;-4.472;2023-05-29T03:58:43;31.90;;;9.18;;
41709;SDS011;59402;48.396;-4.472;2023-05-29T04:01:09;32.97;;;8.90;;
41709;SDS011;59402;48.396;-4.472;2023-05-29T04:03:35;29.80;;;9.98;;
41709;SDS011;59402;48.396;-4.472;2023-05-29T04:06:01;31.08;;;9.30;;
41709;SDS011;59402;48.396;-4.472;2023-05-29T04:08:27;42.58;;;11.02;;
41709;SDS011;59402;48.396;-4.472;2023-05-29T04:10:53;34.85;;;9.93;;
41709;SDS011;59402;48.396;-4.472;2023-05-29T04:13:20;34.50;;;11.80;;
41709;SDS011;59402;48.396;-4.472;2023-05-29T04:15:46;35.80;;;9.68;;
41709;SDS011;59402;48.396;-4.472;2023-05-29T04:18:13;40.88;;;10.30;;
41709;SDS011;59402;48.396;-4.472;2023-05-29T04:20:39;28.77;;;10.45;;
41709;SDS011;59402;48.396;-4.472;2023-05-29T04:23:06;38.22;;;10.75;;
41709;SDS011;59402;48.396;-4.472;2023-05-29T04:25:32;30.45;;;11.13;;
41709;SDS011;59402;48.396;-4.472;2023-05-29T04:27:58;35.97;;;11.77;;
41709;SDS011;59402;48.396;-4.472;2023-05-29T04:30:27;36.47;;;12.23;;
41709;SDS011;59402;48.396;-4.472;2023-05-29T04:32:53;31.42;;;11.75;;
41709;SDS011;59402;48.396;-4.472;2023-05-29T04:35:22;33.40;;;11.73;;
41709;SDS011;59402;48.396;-4.472;2023-05-29T04:38:00;36.08;;;11.55;;
41709;SDS011;59402;48.396;-4.472;2023-05-29T04:40:30;35.10;;;11.68;;
41709;SDS011;59402;48.396;-4.472;2023-05-29T04:42:57;36.17;;;11.38;;
41709;SDS011;59402;48.396;-4.472;2023-05-29T04:45:26;39.67;;;11.32;;
41709;SDS011;59402;48.396;-4.472;2023-05-29T04:47:53;37.20;;;12.10;;
41709;SDS011;59402;48.396;-4.472;2023-05-29T04:52:48;40.38;;;11.40;;
41709;SDS011;59402;48.396;-4.472;2023-05-29T04:55:14;36.10;;;12.48;;
41709;SDS011;59402;48.396;-4.472;2023-05-29T04:57:41;34.88;;;10.80;;
41709;SDS011;59402;48.396;-4.472;2023-05-29T05:00:09;32.60;;;10.75;;
41709;SDS011;59402;48.396;-4.472;2023-05-29T05:02:42;38.63;;;11.38;;
41709;SDS011;59402;48.396;-4.472;2023-05-29T05:05:09;35.17;;;11.57;;
41709;SDS011;59402;48.396;-4.472;2023-05-29T05:07:35;36.08;;;10.90;;
41709;SDS011;59402;48.396;-4.472;2023-05-29T05:10:05;29.45;;;10.75;;
41709;SDS011;59402;48.396;-4.472;2023-05-29T05:12:31;34.65;;;11.65;;
41709;SDS011;59402;48.396;-4.472;2023-05-29T05:14:59;36.58;;;11.00;;
41709;SDS011;59402;48.396;-4.472;2023-05-29T05:17:25;31.88;;;10.50;;
41709;SDS011;59402;48.396;-4.472;2023-05-29T05:19:50;37.65;;;10.65;;
41709;SDS011;59402;48.396;-4.472;2023-05-29T05:22:18;43.35;;;11.82;;
41709;SDS011;59402;48.396;-4.472;2023-05-29T05:24:45;35.90;;;11.45;;
41709;SDS011;59402;48.396;-4.472;2023-05-29T05:27:11;34.80;;;11.05;;
41709;SDS011;59402;48.396;-4.472;2023-05-29T05:29:37;41.92;;;10.90;;
41709;SDS011;59402;48.396;-4.472;2023-05-29T05:32:03;37.30;;;11.15;;
41709;SDS011;59402;48.396;-4.472;2023-05-29T05:34:29;36.60;;;10.68;;
41709;SDS011;59402;48.396;-4.472;2023-05-29T05:36:55;32.10;;;9.45;;
41709;SDS011;59402;48.396;-4.472;2023-05-29T05:39:22;35.70;;;10.73;;
41709;SDS011;59402;48.396;-4.472;2023-05-29T05:41:47;30.02;;;11.18;;
41709;SDS011;59402;48.396;-4.472;2023-05-29T05:44:19;32.25;;;9.98;;
41709;SDS011;59402;48.396;-4.472;2023-05-29T05:46:49;33.00;;;10.45;;
41709;SDS011;59402;48.396;-4.472;2023-05-29T05:49:16;32.15;;;10.32;;
41709;SDS011;59402;48.396;-4.472;2023-05-29T05:51:42;39.40;;;10.05;;
41709;SDS011;59402;48.396;-4.472;2023-05-29T05:54:08;38.35;;;9.88;;
41709;SDS011;59402;48.396;-4.472;2023-05-29T05:56:34;33.85;;;9.52;;
41709;SDS011;59402;48.396;-4.472;2023-05-29T05:59:00;35.42;;;10.30;;
41709;SDS011;59402;48.396;-4.472;2023-05-29T06:01:26;27.05;;;8.98;;
41709;SDS011;59402;48.396;-4.472;2023-05-29T06:03:52;32.05;;;9.38;;
41709;SDS011;59402;48.396;-4.472;2023-05-29T06:06:18;28.10;;;9.80;;
41709;SDS011;59402;48.396;-4.472;2023-05-29T06:08:44;31.45;;;9.48;;
41709;SDS011;59402;48.396;-4.472;2023-05-29T06:11:12;29.45;;;8.98;;
41709;SDS011;59402;48.396;-4.472;2023-05-29T06:13:41;37.53;;;9.02;;
41709;SDS011;59402;48.396;-4.472;2023-05-29T06:16:12;30.70;;;9.07;;
41709;SDS011;59402;48.396;-4.472;2023-05-29T06:18:37;25.25;;;8.73;;
41709;SDS011;59402;48.396;-4.472;2023-05-29T06:21:03;34.28;;;8.80;;
41709;SDS011;59402;48.396;-4.472;2023-05-29T06:23:30;34.38;;;9.23;;
41709;SDS011;59402;48.396;-4.472;2023-05-29T06:25:56;34.13;;;8.60;;
41709;SDS011;59402;48.396;-4.472;2023-05-29T06:28:21;28.48;;;7.95;;
41709;SDS011;59402;48.396;-4.472;2023-05-29T06:30:48;28.92;;;8.65;;
41709;SDS011;59402;48.396;-4.472;2023-05-29T06:33:14;26.35;;;8.18;;
41709;SDS011;59402;48.396;-4.472;2023-05-29T06:35:40;33.22;;;8.50;;
41709;SDS011;59402;48.396;-4.472;2023-05-29T06:38:07;30.20;;;8.00;;
41709;SDS011;59402;48.396;-4.472;2023-05-29T06:40:32;26.05;;;7.65;;
41709;SDS011;59402;48.396;-4.472;2023-05-29T06:42:58;30.00;;;8.65;;
41709;SDS011;59402;48.396;-4.472;2023-05-29T06:45:51;34.08;;;7.93;;
41709;SDS011;59402;48.396;-4.472;2023-05-29T06:48:17;22.92;;;7.35;;
41709;SDS011;59402;48.396;-4.472;2023-05-29T06:50:45;29.48;;;7.93;;
41709;SDS011;59402;48.396;-4.472;2023-05-29T06:53:38;33.75;;;8.32;;
41709;SDS011;59402;48.396;-4.472;2023-05-29T06:56:05;26.63;;;6.75;;
41709;SDS011;59402;48.396;-4.472;2023-05-29T06:58:32;24.95;;;6.70;;
41709;SDS011;59402;48.396;-4.472;2023-05-29T07:00:59;24.98;;;7.40;;
41709;SDS011;59402;48.396;-4.472;2023-05-29T07:03:31;28.08;;;7.22;;
41709;SDS011;59402;48.396;-4.472;2023-05-29T07:05:57;32.80;;;7.43;;
41709;SDS011;59402;48.396;-4.472;2023-05-29T07:08:23;33.63;;;7.70;;
41709;SDS011;59402;48.396;-4.472;2023-05-29T07:10:51;27.75;;;6.57;;
41709;SDS011;59402;48.396;-4.472;2023-05-29T07:15:44;21.42;;;7.00;;
41709;SDS011;59402;48.396;-4.472;2023-05-29T07:18:11;27.40;;;7.22;;
41709;SDS011;59402;48.396;-4.472;2023-05-29T07:20:38;31.77;;;6.82;;
41709;SDS011;59402;48.396;-4.472;2023-05-29T07:23:04;26.25;;;7.03;;
41709;SDS011;59402;48.396;-4.472;2023-05-29T07:25:31;28.90;;;6.88;;
41709;SDS011;59402;48.396;-4.472;2023-05-29T07:27:57;30.40;;;6.45;;
41709;SDS011;59402;48.396;-4.472;2023-05-29T07:30:23;26.55;;;6.43;;
41709;SDS011;59402;48.396;-4.472;2023-05-29T07:32:50;29.93;;;6.67;;
41709;SDS011;59402;48.396;-4.472;2023-05-29T07:35:16;30.60;;;6.85;;
41709;SDS011;59402;48.396;-4.472;2023-05-29T07:37:41;33.60;;;6.40;;
41709;SDS011;59402;48.396;-4.472;2023-05-29T07:40:10;30.65;;;7.40;;
41709;SDS011;59402;48.396;-4.472;2023-05-29T07:42:55;24.95;;;6.45;;
41709;SDS011;59402;48.396;-4.472;2023-05-29T07:45:21;23.65;;;6.00;;
41709;SDS011;59402;48.396;-4.472;2023-05-29T07:47:47;25.25;;;6.13;;
41709;SDS011;59402;48.396;-4.472;2023-05-29T07:50:15;23.85;;;5.95;;
41709;SDS011;59402;48.396;-4.472;2023-05-29T07:52:42;27.23;;;7.35;;
41709;SDS011;59402;48.396;-4.472;2023-05-29T07:55:09;21.10;;;5.60;;
41709;SDS011;59402;48.396;-4.472;2023-05-29T07:57:37;29.90;;;7.07;;
41709;SDS011;59402;48.396;-4.472;2023-05-29T08:00:04;23.95;;;6.57;;
41709;SDS011;59402;48.396;-4.472;2023-05-29T08:02:32;31.33;;;6.75;;
41709;SDS011;59402;48.396;-4.472;2023-05-29T08:05:20;31.13;;;7.82;;
41709;SDS011;59402;48.396;-4.472;2023-05-29T08:07:46;29.85;;;7.15;;
41709;SDS011;59402;48.396;-4.472;2023-05-29T08:10:13;35.67;;;8.13;;
41709;SDS011;59402;48.396;-4.472;2023-05-29T08:12:39;41.97;;;8.85;;
41709;SDS011;59402;48.396;-4.472;2023-05-29T08:15:07;31.40;;;8.30;;
41709;SDS011;59402;48.396;-4.472;2023-05-29T08:17:34;29.52;;;7.20;;
41709;SDS011;59402;48.396;-4.472;2023-05-29T08:20:00;29.52;;;6.70;;
41709;SDS011;59402;48.396;-4.472;2023-05-29T08:22:29;23.38;;;6.20;;
41709;SDS011;59402;48.396;-4.472;2023-05-29T08:24:55;25.15;;;7.00;;
41709;SDS011;59402;48.396;-4.472;2023-05-29T08:27:20;31.00;;;6.82;;
41709;SDS011;59402;48.396;-4.472;2023-05-29T08:29:46;19.35;;;5.93;;
41709;SDS011;59402;48.396;-4.472;2023-05-29T08:32:12;24.40;;;6.22;;
41709;SDS011;59402;48.396;-4.472;2023-05-29T08:34:38;30.88;;;6.50;;
41709;SDS011;59402;48.396;-4.472;2023-05-29T08:37:03;25.02;;;6.10;;
41709;SDS011;59402;48.396;-4.472;2023-05-29T08:39:30;21.92;;;6.28;;
41709;SDS011;59402;48.396;-4.472;2023-05-29T08:42:01;26.52;;;6.18;;
41709;SDS011;59402;48.396;-4.472;2023-05-29T08:44:32;20.55;;;5.63;;
41709;SDS011;59402;48.396;-4.472;2023-05-29T08:46:59;23.90;;;6.72;;
41709;SDS011;59402;48.396;-4.472;2023-05-29T08:49:28;26.65;;;6.47;;
41709;SDS011;59402;48.396;-4.472;2023-05-29T08:52:02;22.37;;;6.30;;
41709;SDS011;59402;48.396;-4.472;2023-05-29T08:54:35;19.42;;;6.05;;
41709;SDS011;59402;48.396;-4.472;2023-05-29T08:57:01;23.10;;;6.55;;
41709;SDS011;59402;48.396;-4.472;2023-05-29T08:59:29;22.20;;;5.95;;
41709;SDS011;59402;48.396;-4.472;2023-05-29T09:01:56;24.85;;;6.95;;
41709;SDS011;59402;48.396;-4.472;2023-05-29T09:04:22;27.85;;;6.90;;
41709;SDS011;59402;48.396;-4.472;2023-05-29T09:06:48;25.73;;;6.22;;
41709;SDS011;59402;48.396;-4.472;2023-05-29T09:09:15;26.35;;;6.60;;
41709;SDS011;59402;48.396;-4.472;2023-05-29T09:11:41;27.13;;;6.78;;
41709;SDS011;59402;48.396;-4.472;2023-05-29T09:14:10;35.45;;;6.90;;
41709;SDS011;59402;48.396;-4.472;2023-05-29T09:16:56;31.85;;;6.70;;
41709;SDS011;59402;48.396;-4.472;2023-05-29T09:19:22;28.35;;;7.22;;
41709;SDS011;59402;48.396;-4.472;2023-05-29T09:21:47;38.75;;;7.50;;
41709;SDS011;59402;48.396;-4.472;2023-05-29T09:24:13;32.53;;;8.13;;
41709;SDS011;59402;48.396;-4.472;2023-05-29T09:26:42;46.60;;;7.63;;
41709;SDS011;59402;48.396;-4.472;2023-05-29T09:29:15;59.17;;;7.63;;
41709;SDS011;59402;48.396;-4.472;2023-05-29T09:31:47;42.50;;;7.72;;
41709;SDS011;59402;48.396;-4.472;2023-05-29T09:34:13;27.08;;;6.72;;
41709;SDS011;59402;48.396;-4.472;2023-05-29T09:36:39;29.88;;;6.32;;
41709;SDS011;59402;48.396;-4.472;2023-05-29T09:39:05;27.00;;;7.80;;
41709;SDS011;59402;48.396;-4.472;2023-05-29T09:41:34;28.65;;;7.13;;
41709;SDS011;59402;48.396;-4.472;2023-05-29T09:44:06;21.23;;;6.35;;
41709;SDS011;59402;48.396;-4.472;2023-05-29T09:46:35;20.23;;;6.03;;
41709;SDS011;59402;48.396;-4.472;2023-05-29T09:49:01;27.58;;;6.70;;
41709;SDS011;59402;48.396;-4.472;2023-05-29T09:51:28;32.13;;;6.40;;
41709;SDS011;59402;48.396;-4.472;2023-05-29T09:53:55;21.95;;;5.90;;
41709;SDS011;59402;48.396;-4.472;2023-05-29T09:56:26;29.05;;;6.90;;
41709;SDS011;59402;48.396;-4.472;2023-05-29T09:58:53;22.80;;;6.38;;
41709;SDS011;59402;48.396;-4.472;2023-05-29T10:01:19;24.30;;;6.47;;
41709;SDS011;59402;48.396;-4.472;2023-05-29T10:03:45;26.02;;;6.80;;
41709;SDS011;59402;48.396;-4.472;2023-05-29T10:06:11;23.45;;;6.07;;
41709;SDS011;59402;48.396;-4.472;2023-05-29T10:08:47;58.70;;;8.40;;
41709;SDS011;59402;48.396;-4.472;2023-05-29T10:11:19;36.97;;;6.93;;
41709;SDS011;59402;48.396;-4.472;2023-05-29T10:13:51;25.05;;;6.65;;
41709;SDS011;59402;48.396;-4.472;2023-05-29T10:16:20;34.10;;;6.35;;
41709;SDS011;59402;48.396;-4.472;2023-05-29T10:18:50;25.45;;;6.65;;
41709;SDS011;59402;48.396;-4.472;2023-05-29T10:21:20;21.10;;;6.63;;
41709;SDS011;59402;48.396;-4.472;2023-05-29T10:23:47;25.60;;;5.88;;
41709;SDS011;59402;48.396;-4.472;2023-05-29T10:28:41;26.27;;;6.70;;
41709;SDS011;59402;48.396;-4.472;2023-05-29T10:31:31;22.75;;;6.00;;
41709;SDS011;59402;48.396;-4.472;2023-05-29T10:36:35;21.33;;;6.40;;
41709;SDS011;59402;48.396;-4.472;2023-05-29T10:39:04;25.25;;;6.07;;
41709;SDS011;59402;48.396;-4.472;2023-05-29T10:41:30;27.33;;;6.97;;
41709;SDS011;59402;48.396;-4.472;2023-05-29T10:44:04;28.70;;;7.32;;
41709;SDS011;59402;48.396;-4.472;2023-05-29T10:49:24;26.83;;;7.13;;
41709;SDS011;59402;48.396;-4.472;2023-05-29T10:51:50;27.80;;;7.53;;
41709;SDS011;59402;48.396;-4.472;2023-05-29T10:54:21;30.45;;;7.72;;
41709;SDS011;59402;48.396;-4.472;2023-05-29T10:56:55;26.48;;;7.72;;
41709;SDS011;59402;48.396;-4.472;2023-05-29T10:59:22;22.73;;;7.15;;
41709;SDS011;59402;48.396;-4.472;2023-05-29T11:01:52;27.50;;;6.57;;
41709;SDS011;59402;48.396;-4.472;2023-05-29T11:06:47;30.95;;;7.10;;
41709;SDS011;59402;48.396;-4.472;2023-05-29T11:14:44;35.90;;;7.80;;
41709;SDS011;59402;48.396;-4.472;2023-05-29T11:17:28;31.05;;;6.78;;
41709;SDS011;59402;48.396;-4.472;2023-05-29T11:19:59;32.67;;;8.07;;
41709;SDS011;59402;48.396;-4.472;2023-05-29T11:22:29;36.50;;;7.50;;
41709;SDS011;59402;48.396;-4.472;2023-05-29T11:25:00;30.77;;;7.15;;
41709;SDS011;59402;48.396;-4.472;2023-05-29T11:27:25;33.03;;;7.40;;
41709;SDS011;59402;48.396;-4.472;2023-05-29T11:29:51;31.80;;;8.05;;
41709;SDS011;59402;48.396;-4.472;2023-05-29T11:32:20;18.85;;;5.60;;
41709;SDS011;59402;48.396;-4.472;2023-05-29T11:34:47;30.10;;;7.20;;
41709;SDS011;59402;48.396;-4.472;2023-05-29T11:37:13;29.90;;;7.43;;
41709;SDS011;59402;48.396;-4.472;2023-05-29T11:39:39;30.70;;;7.57;;
41709;SDS011;59402;48.396;-4.472;2023-05-29T11:42:07;32.17;;;7.22;;
41709;SDS011;59402;48.396;-4.472;2023-05-29T11:44:33;43.17;;;8.80;;
41709;SDS011;59402;48.396;-4.472;2023-05-29T11:46:59;39.38;;;6.97;;
41709;SDS011;59402;48.396;-4.472;2023-05-29T11:49:27;45.00;;;8.60;;
41709;SDS011;59402;48.396;-4.472;2023-05-29T11:51:53;41.90;;;8.65;;
41709;SDS011;59402;48.396;-4.472;2023-05-29T11:54:19;46.33;;;7.80;;
41709;SDS011;59402;48.396;-4.472;2023-05-29T11:56:47;37.05;;;7.20;;
41709;SDS011;59402;48.396;-4.472;2023-05-29T11:59:12;33.13;;;6.93;;
41709;SDS011;59402;48.396;-4.472;2023-05-29T12:01:38;41.28;;;7.18;;
41709;SDS011;59402;48.396;-4.472;2023-05-29T12:04:13;46.03;;;13.23;;
41709;SDS011;59402;48.396;-4.472;2023-05-29T12:06:40;32.03;;;10.82;;
41709;SDS011;59402;48.396;-4.472;2023-05-29T12:09:07;43.95;;;27.00;;
41709;SDS011;59402;48.396;-4.472;2023-05-29T12:11:34;39.03;;;11.85;;
41709;SDS011;59402;48.396;-4.472;2023-05-29T12:14:00;36.05;;;8.55;;
41709;SDS011;59402;48.396;-4.472;2023-05-29T12:16:27;39.90;;;9.13;;
41709;SDS011;59402;48.396;-4.472;2023-05-29T12:18:55;33.55;;;9.50;;
41709;SDS011;59402;48.396;-4.472;2023-05-29T12:21:21;31.83;;;9.82;;
41709;SDS011;59402;48.396;-4.472;2023-05-29T12:23:51;33.50;;;17.58;;
41709;SDS011;59402;48.396;-4.472;2023-05-29T12:26:17;37.30;;;9.45;;
41709;SDS011;59402;48.396;-4.472;2023-05-29T12:28:45;28.50;;;7.60;;
41709;SDS011;59402;48.396;-4.472;2023-05-29T12:31:11;27.27;;;8.57;;
41709;SDS011;59402;48.396;-4.472;2023-05-29T12:33:40;32.78;;;8.20;;
41709;SDS011;59402;48.396;-4.472;2023-05-29T12:36:08;38.63;;;8.57;;
41709;SDS011;59402;48.396;-4.472;2023-05-29T12:38:45;28.42;;;8.65;;
41709;SDS011;59402;48.396;-4.472;2023-05-29T12:44:07;22.60;;;8.00;;
41709;SDS011;59402;48.396;-4.472;2023-05-29T12:46:40;24.23;;;7.15;;
41709;SDS011;59402;48.396;-4.472;2023-05-29T12:49:13;33.03;;;13.73;;
41709;SDS011;59402;48.396;-4.472;2023-05-29T12:51:40;77.22;;;62.30;;
41709;SDS011;59402;48.396;-4.472;2023-05-29T12:54:09;58.28;;;30.00;;
41709;SDS011;59402;48.396;-4.472;2023-05-29T12:56:35;32.58;;;9.40;;
41709;SDS011;59402;48.396;-4.472;2023-05-29T12:59:01;54.47;;;37.55;;
41709;SDS011;59402;48.396;-4.472;2023-05-29T13:01:26;29.03;;;10.10;;
41709;SDS011;59402;48.396;-4.472;2023-05-29T13:03:52;41.85;;;10.25;;
41709;SDS011;59402;48.396;-4.472;2023-05-29T13:06:18;28.80;;;9.13;;
41709;SDS011;59402;48.396;-4.472;2023-05-29T13:08:43;27.47;;;8.67;;
41709;SDS011;59402;48.396;-4.472;2023-05-29T13:11:09;25.27;;;9.70;;
41709;SDS011;59402;48.396;-4.472;2023-05-29T13:13:35;24.80;;;7.38;;
41709;SDS011;59402;48.396;-4.472;2023-05-29T13:16:01;19.13;;;6.73;;
41709;SDS011;59402;48.396;-4.472;2023-05-29T13:18:26;22.98;;;7.20;;
41709;SDS011;59402;48.396;-4.472;2023-05-29T13:20:52;23.23;;;6.68;;
41709;SDS011;59402;48.396;-4.472;2023-05-29T13:23:18;20.33;;;6.83;;
41709;SDS011;59402;48.396;-4.472;2023-05-29T13:25:44;23.48;;;7.40;;
41709;SDS011;59402;48.396;-4.472;2023-05-29T13:28:10;19.25;;;6.47;;
41709;SDS011;59402;48.396;-4.472;2023-05-29T13:30:36;18.83;;;6.67;;
41709;SDS011;59402;48.396;-4.472;2023-05-29T13:33:02;21.97;;;6.80;;
41709;SDS011;59402;48.396;-4.472;2023-05-29T13:35:27;20.33;;;6.47;;
41709;SDS011;59402;48.396;-4.472;2023-05-29T13:37:53;18.37;;;6.07;;
41709;SDS011;59402;48.396;-4.472;2023-05-29T13:40:19;23.57;;;6.43;;
41709;SDS011;59402;48.396;-4.472;2023-05-29T13:42:45;24.97;;;6.10;;
41709;SDS011;59402;48.396;-4.472;2023-05-29T13:45:10;39.70;;;7.37;;
41709;SDS011;59402;48.396;-4.472;2023-05-29T13:47:37;24.15;;;6.47;;
41709;SDS011;59402;48.396;-4.472;2023-05-29T13:50:03;25.57;;;6.73;;
41709;SDS011;59402;48.396;-4.472;2023-05-29T13:52:29;43.13;;;7.45;;
41709;SDS011;59402;48.396;-4.472;2023-05-29T13:54:55;22.13;;;5.73;;
41709;SDS011;59402;48.396;-4.472;2023-05-29T13:57:23;22.23;;;6.03;;
41709;SDS011;59402;48.396;-4.472;2023-05-29T13:59:48;23.93;;;6.17;;
41709;SDS011;59402;48.396;-4.472;2023-05-29T14:02:14;22.80;;;6.40;;
41709;SDS011;59402;48.396;-4.472;2023-05-29T14:04:40;20.25;;;5.47;;
41709;SDS011;59402;48.396;-4.472;2023-05-29T14:07:07;25.42;;;6.85;;
41709;SDS011;59402;48.396;-4.472;2023-05-29T14:09:33;18.20;;;5.93;;
41709;SDS011;59402;48.396;-4.472;2023-05-29T14:11:59;19.87;;;6.03;;
41709;SDS011;59402;48.396;-4.472;2023-05-29T14:14:25;19.20;;;6.13;;
41709;SDS011;59402;48.396;-4.472;2023-05-29T14:16:51;19.83;;;6.10;;
41709;SDS011;59402;48.396;-4.472;2023-05-29T14:19:18;22.60;;;6.87;;
41709;SDS011;59402;48.396;-4.472;2023-05-29T14:21:44;18.85;;;5.82;;
41709;SDS011;59402;48.396;-4.472;2023-05-29T14:24:10;18.92;;;6.18;;
41709;SDS011;59402;48.396;-4.472;2023-05-29T14:26:36;20.97;;;6.80;;
41709;SDS011;59402;48.396;-4.472;2023-05-29T14:29:02;35.50;;;7.03;;
41709;SDS011;59402;48.396;-4.472;2023-05-29T14:31:28;28.00;;;6.35;;
41709;SDS011;59402;48.396;-4.472;2023-05-29T14:33:54;24.27;;;7.07;;
41709;SDS011;59402;48.396;-4.472;2023-05-29T14:36:19;25.97;;;6.80;;
41709;SDS011;59402;48.396;-4.472;2023-05-29T14:38:45;26.17;;;6.77;;
41709;SDS011;59402;48.396;-4.472;2023-05-29T14:41:12;30.05;;;7.18;;
41709;SDS011;59402;48.396;-4.472;2023-05-29T14:43:38;36.60;;;7.00;;
41709;SDS011;59402;48.396;-4.472;2023-05-29T14:46:06;37.22;;;7.55;;
41709;SDS011;59402;48.396;-4.472;2023-05-29T14:48:31;33.20;;;7.87;;
41709;SDS011;59402;48.396;-4.472;2023-05-29T14:50:57;29.88;;;7.50;;
41709;SDS011;59402;48.396;-4.472;2023-05-29T14:53:22;29.98;;;7.50;;